createdAt,value
2022-08-05T00:04:22.000Z,9.2
2022-08-05T00:08:05.000Z,6.7
2022-08-05T00:12:00.000Z,5.6
2022-08-05T00:15:41.000Z,6.6
2022-08-05T00:19:24.000Z,5.9
2022-08-05T00:23:07.000Z,4.8
2022-08-05T00:26:41.000Z,4.5
2022-08-05T00:29:29.000Z,5
2022-08-05T00:33:06.000Z,5.3
2022-08-05T00:39:12.000Z,6
2022-08-05T00:42:51.000Z,8.1
2022-08-05T00:46:30.000Z,6.8
2022-08-05T00:50:08.000Z,9.8
2022-08-05T00:53:50.000Z,8.9
2022-08-05T00:57:42.000Z,9.3
2022-08-05T01:01:33.000Z,12.6
2022-08-05T01:05:22.000Z,7.2
2022-08-05T01:08:54.000Z,9.8
2022-08-05T01:11:46.000Z,7.2
2022-08-05T01:15:26.000Z,8.6
2022-08-05T01:19:03.000Z,10.1
2022-08-05T01:22:39.000Z,7.9
2022-08-05T01:26:13.000Z,9.4
2022-08-05T01:29:54.000Z,11
2022-08-05T01:33:27.000Z,7.9
2022-08-05T01:37:01.000Z,7.5
2022-08-05T01:40:34.000Z,8.8
2022-08-05T01:44:08.000Z,9.8
2022-08-05T01:47:53.000Z,7.1
2022-08-05T01:50:46.000Z,8.5
2022-08-05T01:54:18.000Z,9.4
2022-08-05T01:57:53.000Z,9.8
2022-08-05T02:01:57.000Z,10
2022-08-05T02:05:35.000Z,9.8
2022-08-05T02:09:08.000Z,9.3
2022-08-05T02:12:45.000Z,6.2
2022-08-05T02:16:18.000Z,10.8
2022-08-05T02:20:33.000Z,9.7
2022-08-05T02:24:16.000Z,9.6
2022-08-05T02:27:49.000Z,9.3
2022-08-05T02:30:43.000Z,5.6
2022-08-05T02:34:27.000Z,6.5
2022-08-05T02:38:00.000Z,10.6
2022-08-05T02:41:39.000Z,9.3
2022-08-05T02:45:27.000Z,10.5
2022-08-05T02:49:19.000Z,8.3
2022-08-05T02:53:02.000Z,9.8
2022-08-05T02:56:49.000Z,10.3
2022-08-05T03:00:25.000Z,8.4
2022-08-05T03:03:59.000Z,8.4
2022-08-05T03:08:57.000Z,7.1
2022-08-05T03:11:48.000Z,7.8
2022-08-05T03:15:49.000Z,6
2022-08-05T03:19:25.000Z,4.8
2022-08-05T03:23:01.000Z,7.4
2022-08-05T03:26:35.000Z,10.5
2022-08-05T03:30:18.000Z,6.1
2022-08-05T03:33:59.000Z,7.5
2022-08-05T03:37:40.000Z,9.5
2022-08-05T03:41:26.000Z,8.3
2022-08-05T03:46:10.000Z,7.9
2022-08-05T03:49:43.000Z,8.9
2022-08-05T03:52:36.000Z,9
2022-08-05T03:59:41.000Z,6.4
2022-08-05T04:03:20.000Z,9.4
2022-08-05T04:06:56.000Z,9.5
2022-08-05T04:10:35.000Z,12.2
2022-08-05T04:14:23.000Z,7.8
2022-08-05T04:18:03.000Z,7.9
2022-08-05T04:21:53.000Z,9.7
2022-08-05T04:26:05.000Z,6.4
2022-08-05T04:29:56.000Z,7
2022-08-05T04:33:38.000Z,7.9
2022-08-05T04:37:15.000Z,6.5
2022-08-05T04:41:28.000Z,7.3
2022-08-05T04:45:03.000Z,8.1
2022-08-05T04:48:48.000Z,7.4
2022-08-05T04:53:00.000Z,10.2
2022-08-05T04:56:33.000Z,8.5
2022-08-05T05:00:11.000Z,8.3
2022-08-05T05:04:33.000Z,6.4
2022-08-05T05:08:42.000Z,7.8
2022-08-05T05:12:15.000Z,7
2022-08-05T05:15:54.000Z,6.2
2022-08-05T05:18:50.000Z,6.2
2022-08-05T05:22:48.000Z,8
2022-08-05T05:26:58.000Z,7.7
2022-08-05T05:30:43.000Z,8.5
2022-08-05T05:34:17.000Z,10
2022-08-05T05:37:52.000Z,10.3
2022-08-05T05:41:34.000Z,8.1
2022-08-05T05:45:07.000Z,6.3
2022-08-05T05:48:42.000Z,7.3
2022-08-05T05:52:18.000Z,7.2
2022-08-05T05:55:58.000Z,7.8
2022-08-05T05:58:50.000Z,7
2022-08-05T06:02:33.000Z,5.4
2022-08-05T06:06:06.000Z,6.9
2022-08-05T06:09:59.000Z,7.1
2022-08-05T06:13:38.000Z,7.4
2022-08-05T06:17:23.000Z,6.3
2022-08-05T06:21:00.000Z,9
2022-08-05T06:24:45.000Z,6.7
2022-08-05T06:28:22.000Z,7.5
2022-08-05T06:32:06.000Z,7.7
2022-08-05T06:36:07.000Z,5.9
2022-08-05T06:39:00.000Z,7.7
2022-08-05T06:42:32.000Z,7
2022-08-05T06:46:05.000Z,5.3
2022-08-05T06:50:55.000Z,6.2
2022-08-05T06:54:39.000Z,8.2
2022-08-05T06:58:25.000Z,9.4
2022-08-05T07:02:03.000Z,6.8
2022-08-05T07:05:40.000Z,6
2022-08-05T07:09:22.000Z,9.5
2022-08-05T07:12:57.000Z,8.8
2022-08-05T07:16:33.000Z,8.4
2022-08-05T07:20:52.000Z,8.8
2022-08-05T07:24:30.000Z,8.7
2022-08-05T07:28:24.000Z,6.6
2022-08-05T07:32:29.000Z,4.8
2022-08-05T07:36:07.000Z,7.3
2022-08-05T07:39:51.000Z,5.8
2022-08-05T07:44:14.000Z,8.6
2022-08-05T07:47:57.000Z,7.3
2022-08-05T07:51:42.000Z,7.2
2022-08-05T07:55:25.000Z,7.1
2022-08-05T07:59:57.000Z,6.5
2022-08-05T08:02:55.000Z,6.7
2022-08-05T08:06:40.000Z,6.4
2022-08-05T08:10:18.000Z,4.5
2022-08-05T08:14:02.000Z,7
2022-08-05T08:18:49.000Z,4.7
2022-08-05T08:22:59.000Z,5.9
2022-08-05T08:26:50.000Z,6.4
2022-08-05T08:30:36.000Z,5.7
2022-08-05T08:34:26.000Z,8.1
2022-08-05T08:38:40.000Z,6.6
2022-08-05T08:42:21.000Z,7
2022-08-05T08:45:21.000Z,4.7
2022-08-05T08:48:56.000Z,4.7
2022-08-05T08:54:11.000Z,5.1
2022-08-05T08:58:04.000Z,5.3
2022-08-05T09:01:46.000Z,5.3
2022-08-05T09:05:23.000Z,6.3
2022-08-05T09:09:55.000Z,5.2
2022-08-05T09:13:54.000Z,5.4
2022-08-05T09:18:25.000Z,8.9
2022-08-05T09:22:04.000Z,4.9
2022-08-05T09:26:01.000Z,6.2
2022-08-05T09:28:53.000Z,5.2
2022-08-05T09:32:25.000Z,9
2022-08-05T09:36:17.000Z,7.1
2022-08-05T09:40:17.000Z,6.3
2022-08-05T09:43:56.000Z,5.8
2022-08-05T09:48:07.000Z,5.4
2022-08-05T09:52:00.000Z,4.9
2022-08-05T09:55:53.000Z,4.7
2022-08-05T09:59:41.000Z,4.4
2022-08-05T10:03:31.000Z,4.3
2022-08-05T10:07:25.000Z,5.2
2022-08-05T10:11:22.000Z,5.6
2022-08-05T10:14:56.000Z,5.5
2022-08-05T10:18:30.000Z,7.4
2022-08-05T10:22:10.000Z,6.2
2022-08-05T10:26:09.000Z,5.8
2022-08-05T10:30:16.000Z,6.1
2022-08-05T10:36:28.000Z,4.7
2022-08-05T10:40:01.000Z,7.3
2022-08-05T10:43:46.000Z,5.3
2022-08-05T10:47:38.000Z,6.9
2022-08-05T10:52:31.000Z,6.2
2022-08-05T10:55:30.000Z,6.1
2022-08-05T10:59:43.000Z,5.9
2022-08-05T11:04:04.000Z,6
2022-08-05T11:07:37.000Z,5.8
2022-08-05T11:11:45.000Z,6.1
2022-08-05T11:15:19.000Z,5.1
2022-08-05T11:19:59.000Z,4.7
2022-08-05T11:23:48.000Z,5.8
2022-08-05T11:28:07.000Z,3.7
2022-08-05T11:31:42.000Z,5.6
2022-08-05T11:35:45.000Z,4.1
2022-08-05T11:38:52.000Z,4.6
2022-08-05T11:42:25.000Z,4.4
2022-08-05T11:46:06.000Z,4.5
2022-08-05T11:49:48.000Z,4.7
2022-08-05T11:53:48.000Z,3.8
2022-08-05T11:57:31.000Z,4.1
2022-08-05T12:01:49.000Z,4.3
2022-08-05T12:05:31.000Z,3.5
2022-08-05T12:09:08.000Z,4.7
2022-08-05T12:12:47.000Z,5.3
2022-08-05T12:16:25.000Z,4.2
2022-08-05T12:19:22.000Z,5.4
2022-08-05T12:23:54.000Z,5.9
2022-08-05T12:27:32.000Z,4.3
2022-08-05T12:31:21.000Z,4.4
2022-08-05T12:35:34.000Z,5.3
2022-08-05T12:39:08.000Z,5.8
2022-08-05T12:42:42.000Z,5.5
2022-08-05T12:46:32.000Z,4.5
2022-08-05T12:50:30.000Z,5.2
2022-08-05T12:54:21.000Z,5.1
2022-08-05T12:57:54.000Z,5.3
2022-08-05T13:01:36.000Z,5.3
2022-08-05T13:05:33.000Z,6.3
2022-08-05T13:09:14.000Z,5.4
2022-08-05T13:12:53.000Z,5.7
2022-08-05T13:16:35.000Z,6.2
2022-08-05T13:20:08.000Z,6
2022-08-05T13:23:55.000Z,6.6
2022-08-05T13:27:58.000Z,6.6
2022-08-05T13:31:36.000Z,6.9
2022-08-05T13:36:24.000Z,7.2
2022-08-05T13:40:03.000Z,6.6
2022-08-05T13:43:00.000Z,6.1
2022-08-05T13:46:44.000Z,7.5
2022-08-05T13:50:59.000Z,7.1
2022-08-05T13:54:34.000Z,7.4
2022-08-05T13:58:17.000Z,7.9
2022-08-05T14:02:00.000Z,8.7
2022-08-05T14:05:49.000Z,10.1
2022-08-05T14:10:05.000Z,10.6
2022-08-05T14:14:03.000Z,13.8
2022-08-05T14:18:09.000Z,11.7
2022-08-05T14:21:55.000Z,11
2022-08-05T14:24:56.000Z,12.5
2022-08-05T14:29:07.000Z,9.3
2022-08-05T14:32:45.000Z,8.8
2022-08-05T14:36:22.000Z,6.7
2022-08-05T14:39:59.000Z,7.1
2022-08-05T14:43:32.000Z,4.7
2022-08-05T14:47:30.000Z,4.9
2022-08-05T14:51:59.000Z,6.7
2022-08-05T14:55:43.000Z,5.3
2022-08-05T14:59:18.000Z,5.7
2022-08-05T15:02:58.000Z,5.8
2022-08-05T15:05:53.000Z,5.1
2022-08-05T15:10:15.000Z,5.5
2022-08-05T15:13:54.000Z,4.9
2022-08-05T15:20:01.000Z,5.5
2022-08-05T15:23:45.000Z,5
2022-08-05T15:27:39.000Z,3.9
2022-08-05T15:31:20.000Z,4.1
2022-08-05T15:35:00.000Z,4.7
2022-08-05T15:38:37.000Z,3.6
2022-08-05T15:43:20.000Z,4.1
2022-08-05T15:46:53.000Z,3.3
2022-08-05T15:49:38.000Z,4.5
2022-08-05T15:54:14.000Z,2.3
2022-08-05T15:58:07.000Z,2.7
2022-08-05T16:01:43.000Z,2.5
2022-08-05T16:05:19.000Z,5.1
2022-08-05T16:08:54.000Z,1.9
2022-08-05T16:12:28.000Z,2.7
2022-08-05T16:16:02.000Z,2.9
2022-08-05T16:19:36.000Z,2
2022-08-05T16:24:01.000Z,4.2
2022-08-05T16:28:06.000Z,2.2
2022-08-05T16:30:59.000Z,3.3
2022-08-05T16:34:36.000Z,3.3
2022-08-05T16:38:09.000Z,3.4
2022-08-05T16:42:23.000Z,2.5
2022-08-05T16:45:57.000Z,4.8
2022-08-05T16:49:57.000Z,2
2022-08-05T16:53:49.000Z,3.3
2022-08-05T16:57:46.000Z,3.3
2022-08-05T17:01:29.000Z,2.7
2022-08-05T17:05:21.000Z,2.5
2022-08-05T17:08:55.000Z,2.1
2022-08-05T17:11:46.000Z,2
2022-08-05T17:15:36.000Z,2.6
2022-08-05T17:19:18.000Z,2
2022-08-05T17:22:51.000Z,2.2
2022-08-05T17:26:37.000Z,2.2
2022-08-05T17:30:14.000Z,1.7
2022-08-05T17:33:57.000Z,1.7
2022-08-05T17:38:05.000Z,1.6
2022-08-05T17:41:43.000Z,1.8
2022-08-05T17:45:53.000Z,2.7
2022-08-05T17:49:25.000Z,2.2
2022-08-05T17:52:45.000Z,3.5
2022-08-05T17:56:22.000Z,1.9
2022-08-05T17:59:57.000Z,1.9
2022-08-05T18:03:48.000Z,3.3
2022-08-05T18:07:34.000Z,3.4
2022-08-05T18:11:13.000Z,2.5
2022-08-05T18:14:51.000Z,1.9
2022-08-05T18:18:24.000Z,1.4
2022-08-05T18:22:12.000Z,1.6
2022-08-05T18:25:52.000Z,2.4
2022-08-05T18:29:26.000Z,1.3
2022-08-05T18:32:25.000Z,1.3
2022-08-05T18:35:58.000Z,2.3
2022-08-05T18:39:40.000Z,3
2022-08-05T18:45:30.000Z,2.7
2022-08-05T18:49:10.000Z,3.2
2022-08-05T18:52:45.000Z,2.1
2022-08-05T18:56:19.000Z,2.9
2022-08-05T19:00:02.000Z,1.8
2022-08-05T19:03:55.000Z,2.4
2022-08-05T19:08:18.000Z,5.4
2022-08-05T19:11:57.000Z,3
2022-08-05T19:14:49.000Z,4
2022-08-05T19:18:35.000Z,4.4
2022-08-05T19:22:08.000Z,2
2022-08-05T19:26:07.000Z,2.5
2022-08-05T19:29:41.000Z,2.9
2022-08-05T19:33:20.000Z,2.3
2022-08-05T19:37:05.000Z,1.8
2022-08-05T19:40:37.000Z,2.3
2022-08-05T19:44:13.000Z,3.4
2022-08-05T19:47:54.000Z,3.1
2022-08-05T19:51:27.000Z,2.3
2022-08-05T19:55:13.000Z,3.1
2022-08-05T20:00:23.000Z,3
2022-08-05T20:03:56.000Z,3
2022-08-05T20:07:50.000Z,5.5
2022-08-05T20:11:24.000Z,3.8
2022-08-05T20:15:05.000Z,2.7
2022-08-05T20:18:39.000Z,3.2
2022-08-05T20:22:22.000Z,8.6
2022-08-05T20:25:55.000Z,3.3
2022-08-05T20:29:40.000Z,3.1
2022-08-05T20:33:49.000Z,2.5
2022-08-05T20:36:41.000Z,5.5
2022-08-05T20:40:26.000Z,6.1
2022-08-05T20:43:59.000Z,3.7
2022-08-05T20:47:59.000Z,4.3
2022-08-05T20:51:38.000Z,4.5
2022-08-05T20:55:35.000Z,3.9
2022-08-05T20:59:41.000Z,3.3
2022-08-05T21:03:49.000Z,4.2
2022-08-05T21:07:21.000Z,3.7
2022-08-05T21:11:18.000Z,5.6
2022-08-05T21:15:54.000Z,2.9
2022-08-05T21:18:47.000Z,3.3
2022-08-05T21:22:32.000Z,3.3
2022-08-05T21:26:04.000Z,3.5
2022-08-05T21:29:46.000Z,4.2
2022-08-05T21:33:20.000Z,6
2022-08-05T21:37:17.000Z,4.2
2022-08-05T21:40:52.000Z,4.3
2022-08-05T21:44:43.000Z,4.8
2022-08-05T21:48:19.000Z,3.5
2022-08-05T21:52:00.000Z,4.6
2022-08-05T21:56:02.000Z,4.4
2022-08-05T21:59:01.000Z,7.6
2022-08-05T22:02:50.000Z,4.1
2022-08-05T22:06:24.000Z,3.6
2022-08-05T22:10:21.000Z,3.5
2022-08-05T22:13:55.000Z,4.4
2022-08-05T22:18:19.000Z,5.6
2022-08-05T22:22:06.000Z,4.6
2022-08-05T22:28:56.000Z,4.7
2022-08-05T22:32:34.000Z,3.5
2022-08-05T22:36:27.000Z,5.3
2022-08-05T22:40:02.000Z,6.4
2022-08-05T22:42:54.000Z,5.5
2022-08-05T22:46:27.000Z,4
2022-08-05T22:50:06.000Z,2.8
2022-08-05T22:54:06.000Z,3.8
2022-08-05T22:57:56.000Z,3.5
2022-08-05T23:01:50.000Z,3.9
2022-08-05T23:05:58.000Z,4.1
2022-08-05T23:09:43.000Z,2.7
2022-08-05T23:13:25.000Z,3.3
2022-08-05T23:17:02.000Z,5.1
2022-08-05T23:20:37.000Z,3.4
2022-08-05T23:23:28.000Z,6.4
2022-08-05T23:27:01.000Z,4.5
2022-08-05T23:30:33.000Z,3.4
2022-08-05T23:34:09.000Z,4.5
2022-08-05T23:37:49.000Z,3.7
